Observations
| Time | Sensor | AQI | SAQ | Temp °C | Hum % | Pres Pa | CO μg/m³ | H₂S μg/m³ | NO μg/m³ | NO₂ μg/m³ | O₃ μg/m³ | SO₂ μg/m³ | CO₂e PPM | VOC PPM | PM1 μg/m³ | PM2.5 μg/m³ | PM4 μg/m³ | PM10 μg/m³ | TPS µm |
|---|---|---|---|---|---|---|---|---|---|---|---|---|---|---|---|---|---|---|---|
| Wednesday 12 August 2026 | |||||||||||||||||||
| 00:41 | Trim Market St | 2 | 20.9 | 56 | 57,856 | 0 | 0 | 1.21 | 16.65 | 62.65 | 0 | 2.14 | 3.19 | 3.99 | |||||
| 00:40 | Trim Patrick St | 2 | 20.2 | 60 | 73,609 | 0 | 10.37 | 1.21 | 27.05 | 41 | 3.43 | 4.57 | 8.78 | 9.66 | |||||
| 00:39 | Trim Patrick St | 2 | 20.2 | 60 | 73,554 | 0 | 7.71 | 1.22 | 40.37 | 43.94 | 2.61 | 3.71 | 7.98 | 8.78 | |||||
| 00:39 | Trim Market St | 2 | 20.9 | 56 | 57,854 | 0 | 0 | 1.21 | 18.33 | 63.45 | 0 | 1.43 | 2.68 | 3.99 | |||||
| 00:38 | Trim Patrick St | 2 | 20.3 | 60 | 73,514 | 0 | 3.89 | 1.23 | 15.86 | 43.02 | 2.68 | 3.71 | 8 | 8.79 | |||||
| 00:38 | Trim Market St | 2 | 20.9 | 56 | 57,845 | 0 | 0 | 1.21 | 18.91 | 58.26 | 0 | 0.71 | 3.19 | 3.99 | |||||
| 00:37 | Trim Patrick St | 2 | 20.2 | 60 | 73,532 | 0 | 7.73 | 1.22 | 15.33 | 49.04 | 3.08 | 2.86 | 7.23 | 7.96 | |||||
| 00:37 | Trim Market St | 2 | 20.9 | 56 | 57,828 | 0 | 0 | 1.21 | 19.82 | 57.67 | 0 | 1.43 | 3.7 | 4.7 | |||||
| 00:36 | Trim Patrick St | 2 | 20.3 | 61 | 73,489 | 0 | 8.94 | 1.24 | 32.59 | 51.78 | 2.54 | 2 | 6.49 | 7.13 | |||||
| 00:35 | Trim Patrick St | 2 | 20.3 | 60 | 73,434 | 0 | 8.26 | 1.21 | 24.76 | 42.7 | 3.05 | 3.71 | 8.03 | 8.83 | |||||
| 00:34 | Trim Patrick St | 2 | 20.3 | 61 | 73,388 | 0 | 7.23 | 1.3 | 16.41 | 37.76 | 2.78 | 4.57 | 9.44 | 10.39 | |||||
| 00:33 | Trim Patrick St | 2 | 20.3 | 60 | 73,328 | 0 | 10.63 | 1.22 | 39.01 | 54.91 | 3.66 | 3.71 | 8.74 | 9.62 | |||||
| 00:32 | Trim Patrick St | 2 | 20.3 | 60 | 73,251 | 0 | 8.44 | 1.23 | 22.11 | 41.16 | 2.93 | 2.86 | 7.24 | 7.96 | |||||
| 00:31 | Trim Patrick St | 2 | 20.3 | 59 | 73,184 | 0 | 8.84 | 1.2 | 22.21 | 41.5 | 2.59 | 3.71 | 8.09 | 8.9 | |||||
| 00:31 | Trim Market St | 2 | 21 | 56 | 57,663 | 0 | 0 | 1.21 | 26.72 | 51.6 | 0 | 0.71 | 3.21 | 3.98 | |||||
| 00:23 | Trim Patrick St | 2 | 20.4 | 60 | 72,610 | 0 | 9.97 | 1.22 | 27.14 | 43.34 | 3.47 | 4.57 | 9.49 | 10.44 | |||||
| 00:23 | Trim Market St | 2 | 21.1 | 55 | 57,361 | 0 | 0 | 1.26 | 22.03 | 56.13 | 0 | 1.43 | 2.73 | 3.24 | |||||
| 00:22 | Trim Patrick St | 2 | 20.4 | 58 | 72,507 | 0 | 10.6 | 1.19 | 35.84 | 53.29 | 3.6 | 2.86 | 7.43 | 8.17 | |||||
| 00:22 | Trim Market St | 2 | 21.1 | 55 | 57,324 | 0 | 0 | 1.26 | 12.71 | 63.74 | 0 | 0 | 2.23 | 3.95 | |||||
| 00:21 | Trim Patrick St | 2 | 20.4 | 59 | 72,379 | 0 | 9.42 | 1.21 | 25.89 | 46.82 | 3.01 | 2.86 | 8.81 | 9.69 | |||||